Time;durP1;ratioP1;P1;durP2;ratioP2;P2;SDS_P1;SDS_P2;PMS_P1;PMS_P2;Temp;Humidity;BMP_temperature;BMP_pressure;BME280_temperature;BME280_humidity;BME280_pressure;Samples;Min_cycle;Max_cycle;Signal;HPM_P1;HPM_P2
2022/11/25 00:00:53;;;;;;;167.88;56.78;;;0.00;99.90;;;;;;5053780;28;20017;-67
2022/11/25 00:03:19;;;;;;;257.42;73.45;;;0.00;99.90;;;;;;5053639;28;20112;-67
2022/11/25 00:05:45;;;;;;;241.98;66.72;;;0.00;99.90;;;;;;5054950;28;20375;-68
2022/11/25 00:08:10;;;;;;;189.32;61.65;;;0.00;99.90;;;;;;5073482;28;20078;-69
2022/11/25 00:10:36;;;;;;;218.60;64.13;;;0.00;99.90;;;;;;5073526;28;20040;-73
2022/11/25 00:13:02;;;;;;;210.80;63.50;;;0.00;99.90;;;;;;5072150;28;20513;-73
2022/11/25 00:15:28;;;;;;;263.73;71.15;;;0.10;99.90;;;;;;5073488;28;20055;-68
2022/11/25 00:17:53;;;;;;;260.52;73.00;;;0.10;99.90;;;;;;5073445;28;20502;-74
2022/11/25 00:20:20;;;;;;;321.58;78.00;;;0.10;99.90;;;;;;5072050;28;20025;-67
2022/11/25 00:22:46;;;;;;;160.95;58.05;;;0.10;99.90;;;;;;5070604;28;20055;-74
2022/11/25 00:25:11;;;;;;;263.63;75.45;;;0.00;99.90;;;;;;5053282;28;20028;-74
2022/11/25 00:27:37;;;;;;;274.40;75.40;;;0.00;99.90;;;;;;5053114;28;20017;-67
2022/11/25 00:30:03;;;;;;;214.55;66.47;;;0.00;99.90;;;;;;5053261;28;20083;-74
2022/11/25 00:32:29;;;;;;;226.20;68.78;;;0.10;99.90;;;;;;5053142;28;20487;-68
2022/11/25 00:34:54;;;;;;;179.15;63.60;;;0.10;99.90;;;;;;5053150;28;20075;-67
2022/11/25 00:37:20;;;;;;;141.05;53.28;;;0.10;99.90;;;;;;5051922;28;20017;-73
2022/11/25 00:39:46;;;;;;;175.30;60.58;;;0.10;99.90;;;;;;5052946;28;20068;-73
2022/11/25 00:44:55;;;;;;;236.07;67.50;;;0.10;99.90;;;;;;5052984;28;20090;-67
2022/11/25 00:47:21;;;;;;;257.73;75.10;;;0.10;99.90;;;;;;5051774;28;20025;-73
2022/11/25 00:49:49;;;;;;;226.18;65.63;;;0.10;99.90;;;;;;5052994;28;20040;-73
2022/11/25 00:52:17;;;;;;;278.80;74.40;;;0.10;99.90;;;;;;5053069;28;20017;-67
2022/11/25 00:54:43;;;;;;;320.23;80.00;;;0.10;99.90;;;;;;5052855;28;20482;-67
2022/11/25 00:57:10;;;;;;;175.55;57.83;;;0.10;99.90;;;;;;5053401;28;20091;-73
2022/11/25 00:59:35;;;;;;;227.30;62.42;;;0.10;99.90;;;;;;5059423;28;20021;-73
2022/11/25 01:02:01;;;;;;;226.73;65.35;;;0.10;99.90;;;;;;5059725;28;20043;-69
2022/11/25 01:04:27;;;;;;;200.13;67.07;;;0.10;99.90;;;;;;5059479;28;20037;-67
2022/11/25 01:06:53;;;;;;;254.88;67.20;;;0.10;99.90;;;;;;5059276;28;20087;-73
2022/11/25 01:09:19;;;;;;;310.60;80.22;;;0.10;99.90;;;;;;5059131;28;20052;-73
2022/11/25 01:11:44;;;;;;;376.48;89.20;;;0.10;99.90;;;;;;5059523;28;20510;-73
2022/11/25 01:14:10;;;;;;;339.35;84.07;;;0.10;99.90;;;;;;5059397;28;20049;-73
2022/11/25 01:16:36;;;;;;;463.85;104.65;;;0.10;99.90;;;;;;5058123;28;20126;-68
2022/11/25 01:19:02;;;;;;;253.48;71.93;;;0.10;99.90;;;;;;5059393;28;20025;-74
2022/11/25 01:21:30;;;;;;;263.92;69.25;;;0.10;99.90;;;;;;5059377;28;20498;-68
2022/11/25 01:23:59;;;;;;;277.05;78.00;;;0.10;99.90;;;;;;5059355;28;20033;-74
2022/11/25 01:26:25;;;;;;;184.05;62.63;;;0.10;99.90;;;;;;5057814;28;20569;-68
2022/11/25 01:28:57;;;;;;;368.30;93.70;;;0.10;99.90;;;;;;5059424;28;20096;-74
2022/11/25 01:31:25;;;;;;;367.85;91.35;;;0.10;99.90;;;;;;5059298;28;20040;-74
2022/11/25 01:34:03;;;;;;;173.52;63.28;;;0.10;99.90;;;;;;5059543;28;20018;-74
2022/11/25 01:36:29;;;;;;;244.40;75.10;;;0.10;99.90;;;;;;5059013;28;20108;-67
2022/11/25 01:38:58;;;;;;;258.02;72.43;;;0.20;99.90;;;;;;5059384;28;20017;-68
2022/11/25 01:41:28;;;;;;;457.52;103.03;;;0.20;99.90;;;;;;5059186;28;20024;-74
2022/11/25 01:44:13;;;;;;;361.10;85.70;;;0.10;99.90;;;;;;5058967;28;20141;-67
2022/11/25 01:46:48;;;;;;;268.75;76.60;;;0.10;99.90;;;;;;5059227;28;20033;-67
2022/11/25 01:49:38;;;;;;;242.57;70.30;;;0.10;99.90;;;;;;5059118;28;20013;-74
2022/11/25 01:52:22;;;;;;;288.20;77.85;;;0.20;99.90;;;;;;5059242;28;20028;-67
2022/11/25 01:54:54;;;;;;;278.05;70.95;;;0.20;99.90;;;;;;5059241;28;20057;-74
2022/11/25 01:57:26;;;;;;;339.85;83.25;;;0.10;99.90;;;;;;5057878;28;20025;-68
2022/11/25 01:59:56;;;;;;;293.60;71.13;;;0.20;99.90;;;;;;5059115;28;20025;-74
2022/11/25 02:02:22;;;;;;;254.98;66.35;;;0.10;99.90;;;;;;5059029;28;20021;-74
2022/11/25 02:04:48;;;;;;;395.73;96.35;;;0.10;99.90;;;;;;5059060;28;20112;-67
2022/11/25 02:07:29;;;;;;;407.45;92.95;;;0.10;99.90;;;;;;5073303;28;20016;-74
2022/11/25 02:09:56;;;;;;;488.67;102.32;;;0.20;99.90;;;;;;5075420;28;20027;-74
2022/11/25 02:12:22;;;;;;;421.67;93.50;;;0.10;99.90;;;;;;5075843;28;20112;-68
2022/11/25 02:14:50;;;;;;;396.58;86.82;;;0.10;99.90;;;;;;5075677;28;20434;-74
2022/11/25 02:17:16;;;;;;;533.22;116.35;;;0.10;99.90;;;;;;5075708;28;20386;-73
2022/11/25 02:19:55;;;;;;;274.42;71.43;;;0.10;99.90;;;;;;5074416;28;20401;-67
2022/11/25 02:22:29;;;;;;;370.27;86.68;;;0.10;99.90;;;;;;5074443;28;20043;-74
2022/11/25 02:25:00;;;;;;;228.13;71.68;;;0.10;99.90;;;;;;5035524;28;20065;-73
2022/11/25 02:27:27;;;;;;;398.10;95.20;;;0.10;99.90;;;;;;5035639;28;20556;-73
2022/11/25 02:29:53;;;;;;;522.63;118.93;;;0.20;99.90;;;;;;5035496;28;20383;-73
2022/11/25 02:32:22;;;;;;;218.45;69.60;;;0.10;99.90;;;;;;5035325;28;20056;-73
2022/11/25 02:34:47;;;;;;;325.25;82.65;;;0.10;99.90;;;;;;5034197;28;20032;-73
2022/11/25 02:37:19;;;;;;;329.00;87.65;;;0.10;99.90;;;;;;5035336;28;20026;-68
2022/11/25 02:39:47;;;;;;;380.38;87.25;;;0.10;99.90;;;;;;5035488;28;20018;-74
2022/11/25 02:42:16;;;;;;;302.20;73.85;;;0.10;99.90;;;;;;5033940;28;20029;-74
2022/11/25 02:44:42;;;;;;;326.50;77.55;;;0.10;99.90;;;;;;5035236;28;20061;-74
2022/11/25 02:47:07;;;;;;;281.20;76.28;;;0.10;99.90;;;;;;5035212;28;20025;-74
2022/11/25 02:49:33;;;;;;;259.40;70.88;;;0.10;99.90;;;;;;5052017;28;20486;-74
2022/11/25 02:51:58;;;;;;;350.55;84.53;;;0.10;99.90;;;;;;5055097;28;20024;-74
2022/11/25 02:54:24;;;;;;;290.35;80.25;;;0.10;99.90;;;;;;5055043;28;20059;-74
2022/11/25 02:56:49;;;;;;;279.98;75.25;;;0.10;99.90;;;;;;5055099;28;20040;-69
2022/11/25 02:59:15;;;;;;;375.02;99.47;;;0.10;99.90;;;;;;5054956;28;20079;-74
2022/11/25 03:01:40;;;;;;;272.08;83.38;;;0.10;99.90;;;;;;5054878;28;20123;-69
2022/11/25 03:04:06;;;;;;;243.95;77.43;;;0.10;99.90;;;;;;5054904;28;20041;-67
2022/11/25 03:06:32;;;;;;;293.30;88.50;;;0.10;99.90;;;;;;5063550;28;20084;-74
2022/11/25 03:08:58;;;;;;;471.90;109.63;;;0.10;99.90;;;;;;5074888;28;20021;-74
2022/11/25 03:12:17;;;;;;;185.20;66.60;;;0.10;99.90;;;;;;5074626;28;20092;-69
2022/11/25 03:14:10;;;;;;;469.52;101.22;;;0.10;99.90;;;;;;5075054;28;20025;-67
2022/11/25 03:16:35;;;;;;;355.15;81.35;;;0.10;99.90;;;;;;5074566;28;20575;-73
2022/11/25 03:19:01;;;;;;;364.02;80.97;;;0.10;99.90;;;;;;5074389;28;20393;-68
2022/11/25 03:21:27;;;;;;;244.27;72.45;;;0.10;99.90;;;;;;5074190;28;20030;-74
2022/11/25 03:23:52;;;;;;;464.58;104.78;;;0.10;99.90;;;;;;5060283;28;20106;-73
2022/11/25 03:26:18;;;;;;;374.15;90.15;;;0.10;99.90;;;;;;5054351;28;20029;-67
2022/11/25 03:28:43;;;;;;;296.90;76.57;;;0.10;99.90;;;;;;5054522;28;20021;-68
2022/11/25 03:31:10;;;;;;;271.08;79.25;;;0.10;99.90;;;;;;5053053;28;20031;-74
2022/11/25 03:33:35;;;;;;;403.33;93.65;;;0.10;99.90;;;;;;5054349;28;20025;-67
2022/11/25 03:36:01;;;;;;;261.23;74.03;;;0.10;99.90;;;;;;5052950;28;20025;-73
2022/11/25 03:38:27;;;;;;;253.77;74.22;;;0.10;99.90;;;;;;5054247;28;20053;-74
2022/11/25 03:40:52;;;;;;;301.75;79.53;;;0.10;99.90;;;;;;5054213;28;20028;-74
2022/11/25 03:43:18;;;;;;;185.85;63.92;;;0.10;99.90;;;;;;5053805;28;20053;-74
2022/11/25 03:45:46;;;;;;;234.25;71.65;;;0.10;99.90;;;;;;5054127;28;20025;-68
2022/11/25 03:48:12;;;;;;;287.85;86.38;;;0.10;99.90;;;;;;5053957;28;20080;-74
2022/11/25 03:50:37;;;;;;;229.07;82.07;;;0.10;99.90;;;;;;5054047;28;20491;-67
2022/11/25 03:53:03;;;;;;;274.98;81.65;;;0.10;99.90;;;;;;5054087;28;20013;-73
2022/11/25 03:55:28;;;;;;;166.70;62.30;;;0.10;99.90;;;;;;5053863;28;20100;-67
2022/11/25 03:57:54;;;;;;;156.43;59.20;;;0.10;99.90;;;;;;5053940;28;20024;-68
2022/11/25 04:00:20;;;;;;;153.75;60.78;;;0.10;99.90;;;;;;5052534;28;20017;-74
2022/11/25 04:02:45;;;;;;;162.65;60.63;;;0.10;99.90;;;;;;5053806;28;20441;-74
2022/11/25 04:05:11;;;;;;;152.30;61.03;;;0.20;99.90;;;;;;5053802;28;20036;-73
2022/11/25 04:07:36;;;;;;;161.82;63.78;;;0.20;99.90;;;;;;5070303;28;20050;-68
2022/11/25 04:10:02;;;;;;;151.23;64.47;;;0.20;99.90;;;;;;5073684;28;20021;-74
2022/11/25 04:12:46;;;;;;;176.48;68.97;;;0.20;99.90;;;;;;5073383;28;20432;-74
2022/11/25 04:15:15;;;;;;;176.50;68.28;;;0.20;99.90;;;;;;5073334;28;20470;-73
2022/11/25 04:17:41;;;;;;;151.13;60.40;;;0.20;99.90;;;;;;5073384;28;20044;-68
2022/11/25 04:20:08;;;;;;;160.60;61.58;;;0.20;99.90;;;;;;5072261;28;20117;-73
2022/11/25 04:22:33;;;;;;;127.03;55.80;;;0.20;99.90;;;;;;5070995;28;20028;-68
2022/11/25 04:24:59;;;;;;;148.63;58.50;;;0.20;99.90;;;;;;5053477;28;20037;-73
2022/11/25 04:27:25;;;;;;;178.02;66.60;;;0.30;99.90;;;;;;5053264;28;20103;-68
2022/11/25 04:29:50;;;;;;;150.80;61.33;;;0.30;99.90;;;;;;5053402;28;20474;-73
2022/11/25 04:32:16;;;;;;;138.88;54.58;;;0.30;99.90;;;;;;5052830;28;20071;-74
2022/11/25 04:34:41;;;;;;;168.15;59.03;;;0.30;99.90;;;;;;5052006;28;20479;-73
2022/11/25 04:37:07;;;;;;;133.95;56.67;;;0.30;99.90;;;;;;5051861;28;20032;-68
2022/11/25 04:39:33;;;;;;;141.82;57.10;;;0.30;99.90;;;;;;5053115;28;20032;-67
2022/11/25 04:44:42;;;;;;;133.35;51.08;;;0.20;99.90;;;;;;5067596;28;20113;-69
2022/11/25 04:47:08;;;;;;;122.18;52.78;;;0.20;99.90;;;;;;5073065;28;20024;-68
2022/11/25 04:49:34;;;;;;;177.27;65.28;;;0.20;99.90;;;;;;5073118;28;20032;-73
2022/11/25 04:51:59;;;;;;;149.82;57.63;;;0.20;99.90;;;;;;5071779;28;20048;-73
2022/11/25 04:54:25;;;;;;;143.35;55.50;;;0.20;99.90;;;;;;5073062;28;20025;-68
2022/11/25 04:56:50;;;;;;;187.88;63.28;;;0.20;99.90;;;;;;5073171;28;20024;-73
2022/11/25 05:02:00;;;;;;;147.52;58.03;;;0.20;99.90;;;;;;5073167;28;20432;-73
2022/11/25 05:04:26;;;;;;;141.23;57.25;;;0.30;99.90;;;;;;5072761;28;20033;-68
2022/11/25 05:06:51;;;;;;;142.32;57.03;;;0.30;99.90;;;;;;5060838;28;20040;-69
2022/11/25 05:09:17;;;;;;;190.15;71.18;;;0.30;99.90;;;;;;5052825;28;20390;-73
2022/11/25 05:11:43;;;;;;;191.45;63.58;;;0.30;99.90;;;;;;5051369;28;20590;-68
2022/11/25 05:14:08;;;;;;;150.45;59.20;;;0.30;99.90;;;;;;5052787;28;20033;-73
2022/11/25 05:16:34;;;;;;;154.85;57.25;;;0.30;99.90;;;;;;5052659;28;20017;-68
2022/11/25 05:18:59;;;;;;;168.18;62.22;;;0.30;99.90;;;;;;5052690;28;20099;-69
2022/11/25 05:21:25;;;;;;;135.30;56.78;;;0.30;99.90;;;;;;5051097;28;20057;-75
2022/11/25 05:23:52;;;;;;;152.52;60.20;;;0.30;99.90;;;;;;5052396;28;20036;-75
2022/11/25 05:26:18;;;;;;;163.43;59.08;;;0.30;99.90;;;;;;5052247;28;20084;-73
2022/11/25 05:28:43;;;;;;;133.20;58.80;;;0.30;99.90;;;;;;5052691;28;20032;-67
2022/11/25 05:31:09;;;;;;;154.80;61.17;;;0.40;99.90;;;;;;5052660;28;20021;-73
2022/11/25 05:33:34;;;;;;;269.67;85.38;;;0.30;99.90;;;;;;5052500;28;20018;-69
2022/11/25 05:36:02;;;;;;;168.85;64.32;;;0.30;99.90;;;;;;5052481;28;20031;-74
2022/11/25 05:38:28;;;;;;;175.00;66.03;;;0.30;99.90;;;;;;5040473;28;20542;-75
2022/11/25 05:41:00;;;;;;;224.45;73.63;;;0.40;99.90;;;;;;5043710;28;20109;-74
2022/11/25 05:43:26;;;;;;;180.05;71.53;;;0.30;99.90;;;;;;5043785;28;20131;-74
2022/11/25 05:45:51;;;;;;;158.00;65.70;;;0.30;99.90;;;;;;5050651;28;20036;-67
2022/11/25 05:48:17;;;;;;;148.35;61.17;;;0.30;99.90;;;;;;5056301;28;20063;-67
2022/11/25 05:50:43;;;;;;;254.38;77.45;;;0.40;99.90;;;;;;5060701;28;20394;-68
2022/11/25 05:53:08;;;;;;;159.45;64.40;;;0.40;99.90;;;;;;5052075;28;20029;-74
2022/11/25 05:55:34;;;;;;;143.75;63.10;;;0.40;99.90;;;;;;5044965;28;20040;-68
2022/11/25 05:58:01;;;;;;;175.00;66.10;;;0.40;99.90;;;;;;5075232;28;20017;-74
2022/11/25 06:00:30;;;;;;;176.70;68.88;;;0.40;99.90;;;;;;5071366;28;20099;-67
2022/11/25 06:02:56;;;;;;;354.77;95.43;;;0.40;99.90;;;;;;5075628;28;20024;-68
2022/11/25 06:05:22;;;;;;;166.38;68.05;;;0.40;99.90;;;;;;5072406;28;20040;-74
2022/11/25 06:07:48;;;;;;;172.77;63.83;;;0.40;99.90;;;;;;5065082;28;20024;-74
2022/11/25 06:10:15;;;;;;;157.05;62.40;;;0.40;99.90;;;;;;5075427;28;20029;-73
2022/11/25 06:12:40;;;;;;;165.40;65.68;;;0.40;99.90;;;;;;5066494;28;20562;-74
2022/11/25 06:15:06;;;;;;;154.05;63.78;;;0.40;99.90;;;;;;5049292;28;20107;-75
2022/11/25 06:17:32;;;;;;;177.13;67.97;;;0.50;99.90;;;;;;5056029;28;20028;-74
2022/11/25 06:19:57;;;;;;;198.48;68.35;;;0.40;99.90;;;;;;5056608;28;20100;-74
2022/11/25 06:22:23;;;;;;;234.07;80.70;;;0.40;99.90;;;;;;5061699;28;20029;-74
2022/11/25 06:24:49;;;;;;;287.70;86.15;;;0.40;99.90;;;;;;5066910;28;20116;-74
2022/11/25 06:27:14;;;;;;;214.05;73.72;;;0.40;99.90;;;;;;5075164;28;20429;-74
2022/11/25 06:29:40;;;;;;;148.60;62.35;;;0.40;99.90;;;;;;5074701;28;20094;-74
2022/11/25 06:32:05;;;;;;;313.50;88.75;;;0.40;99.90;;;;;;5075141;28;20103;-74
2022/11/25 06:34:31;;;;;;;180.95;67.65;;;0.40;99.90;;;;;;5075074;28;20024;-67
2022/11/25 06:36:56;;;;;;;164.10;68.68;;;0.40;99.90;;;;;;5066804;28;20399;-68
2022/11/25 06:39:22;;;;;;;175.02;66.60;;;0.40;99.90;;;;;;5055286;28;20032;-68
2022/11/25 06:41:47;;;;;;;192.32;76.20;;;0.40;99.90;;;;;;5067912;28;20021;-74
2022/11/25 06:44:13;;;;;;;204.77;76.78;;;0.40;99.90;;;;;;5033614;28;20060;-68
2022/11/25 06:46:40;;;;;;;166.40;75.82;;;0.40;99.90;;;;;;5040786;28;20487;-74
2022/11/25 06:49:06;;;;;;;229.65;84.93;;;0.50;99.90;;;;;;5050915;28;20086;-68
2022/11/25 06:51:32;;;;;;;202.27;72.35;;;0.50;99.90;;;;;;5044297;28;20026;-69
2022/11/25 06:53:57;;;;;;;177.23;68.93;;;0.50;99.90;;;;;;5045014;28;20026;-68
2022/11/25 06:56:26;;;;;;;173.05;68.68;;;0.50;99.90;;;;;;5044006;28;20017;-68
2022/11/25 06:58:52;;;;;;;198.07;73.90;;;0.50;99.90;;;;;;5043741;28;20083;-68
2022/11/25 07:01:25;;;;;;;177.10;66.57;;;0.50;99.90;;;;;;5044737;28;20796;-75
2022/11/25 07:03:51;;;;;;;;;;;0.50;99.90;;;;;;5039340;28;20029;-74
2022/11/25 07:06:18;;;;;;;156.38;66.38;;;0.60;99.90;;;;;;5047511;28;20008;-74
2022/11/25 07:08:45;;;;;;;178.80;73.35;;;0.60;99.90;;;;;;5033263;28;20036;-74
2022/11/25 07:11:22;;;;;;;221.52;77.03;;;0.60;99.90;;;;;;5038856;28;20441;-74
2022/11/25 07:13:51;;;;;;;203.73;78.35;;;0.60;99.90;;;;;;5038758;28;20028;-75
2022/11/25 07:16:17;;;;;;;166.40;68.75;;;0.60;99.90;;;;;;5042887;28;20075;-75
2022/11/25 07:18:43;;;;;;;197.07;75.13;;;0.70;99.90;;;;;;5043426;28;20458;-68
2022/11/25 07:21:20;;;;;;;192.13;71.88;;;0.70;99.90;;;;;;5038142;28;20033;-74
2022/11/25 07:23:47;;;;;;;211.88;80.07;;;0.70;99.90;;;;;;5047321;28;20033;-74
2022/11/25 07:26:20;;;;;;;199.82;77.53;;;0.80;99.90;;;;;;5054244;28;20021;-66
2022/11/25 07:28:47;;;;;;;182.93;71.78;;;0.80;99.90;;;;;;5054342;28;20120;-66
2022/11/25 07:31:21;;;;;;;232.52;79.10;;;0.80;99.90;;;;;;5038226;28;20367;-66
2022/11/25 07:33:57;;;;;;;175.32;69.63;;;0.80;99.90;;;;;;5054274;28;20025;-73
2022/11/25 07:36:22;;;;;;;277.63;109.63;;;0.80;99.90;;;;;;5034284;28;20029;-75
2022/11/25 07:38:48;;;;;;;241.65;105.88;;;0.80;99.90;;;;;;5034273;28;20021;-68
2022/11/25 07:41:20;;;;;;;246.23;92.78;;;0.80;99.90;;;;;;5037523;28;20021;-67
2022/11/25 07:43:47;;;;;;;212.75;74.97;;;0.80;99.90;;;;;;5050714;28;20410;-68
2022/11/25 07:46:15;;;;;;;214.07;78.75;;;0.80;99.90;;;;;;5041098;28;20030;-68
2022/11/25 07:48:41;;;;;;;235.68;83.68;;;0.80;99.90;;;;;;5044199;28;20040;-68
2022/11/25 07:51:20;;;;;;;378.00;102.55;;;0.80;99.90;;;;;;5046393;28;20021;-74
2022/11/25 07:53:47;;;;;;;171.52;67.78;;;0.80;99.90;;;;;;5054021;28;20490;-68
2022/11/25 07:56:14;;;;;;;167.05;70.40;;;0.90;99.90;;;;;;5053869;28;20395;-74
2022/11/25 07:58:41;;;;;;;171.80;70.75;;;1.00;99.90;;;;;;5053865;28;20025;-68
2022/11/25 08:01:09;;;;;;;173.75;70.63;;;1.00;99.90;;;;;;5047339;28;20116;-74
2022/11/25 08:03:36;;;;;;;174.77;68.45;;;1.00;99.90;;;;;;5047472;28;20059;-68
2022/11/25 08:06:04;;;;;;;234.27;78.88;;;1.10;99.90;;;;;;5046275;28;20040;-73
2022/11/25 08:08:29;;;;;;;185.32;72.40;;;1.10;99.90;;;;;;5049983;28;20013;-73
2022/11/25 08:10:55;;;;;;;161.60;64.28;;;1.20;99.90;;;;;;5051363;28;20395;-73
2022/11/25 08:13:21;;;;;;;174.77;66.43;;;1.20;99.90;;;;;;5052798;28;20028;-73
2022/11/25 08:15:47;;;;;;;211.80;73.10;;;1.20;99.90;;;;;;5052314;28;20021;-73
2022/11/25 08:18:13;;;;;;;182.00;70.28;;;1.20;99.90;;;;;;5052789;28;20036;-73
2022/11/25 08:20:38;;;;;;;206.88;73.68;;;1.30;99.90;;;;;;5052501;28;20107;-75
2022/11/25 08:23:04;;;;;;;178.52;74.55;;;1.30;99.90;;;;;;5051587;28;20027;-75
2022/11/25 08:25:33;;;;;;;190.75;72.88;;;1.30;99.90;;;;;;5046871;28;20502;-75
2022/11/25 08:27:59;;;;;;;260.75;85.80;;;1.30;99.90;;;;;;5053345;28;20025;-68
2022/11/25 08:30:25;;;;;;;198.43;81.95;;;1.30;99.90;;;;;;5040218;28;20041;-68
2022/11/25 08:32:52;;;;;;;195.82;75.22;;;1.40;99.90;;;;;;5032177;28;20025;-68
2022/11/25 08:35:18;;;;;;;182.57;70.43;;;1.40;99.90;;;;;;5046017;28;20031;-68
2022/11/25 08:37:43;;;;;;;158.32;70.47;;;1.40;99.90;;;;;;5053308;28;20543;-68
2022/11/25 08:40:09;;;;;;;177.45;70.05;;;1.40;99.90;;;;;;5053054;28;20071;-68
2022/11/25 08:42:36;;;;;;;302.15;91.53;;;1.50;99.90;;;;;;5041439;28;20046;-75
2022/11/25 08:45:02;;;;;;;177.82;69.53;;;1.40;99.90;;;;;;5033114;28;20041;-68
2022/11/25 08:47:28;;;;;;;200.55;75.63;;;1.50;99.90;;;;;;5033070;28;20025;-68
2022/11/25 08:49:53;;;;;;;263.60;84.43;;;1.50;99.90;;;;;;5033195;28;20029;-75
2022/11/25 08:52:20;;;;;;;184.90;73.38;;;1.50;99.90;;;;;;5032237;28;20475;-72
2022/11/25 08:54:46;;;;;;;203.10;72.97;;;1.50;99.90;;;;;;5031345;28;20024;-73
2022/11/25 08:57:12;;;;;;;197.00;73.60;;;1.60;99.90;;;;;;5031193;28;20030;-72
2022/11/25 08:59:39;;;;;;;184.10;71.18;;;1.60;99.90;;;;;;5032690;28;20022;-73
2022/11/25 09:02:05;;;;;;;236.30;74.50;;;1.60;99.90;;;;;;5051164;28;20017;-73
2022/11/25 09:04:31;;;;;;;157.75;60.08;;;1.60;99.90;;;;;;5051126;28;20530;-73
2022/11/25 09:06:57;;;;;;;185.02;70.28;;;1.60;99.90;;;;;;5050428;28;20017;-74
2022/11/25 09:09:22;;;;;;;168.40;63.38;;;1.60;99.90;;;;;;5052067;28;20032;-73
2022/11/25 09:11:48;;;;;;;143.13;58.78;;;1.70;99.90;;;;;;5050468;28;20494;-73
2022/11/25 09:14:13;;;;;;;183.32;69.50;;;1.70;99.90;;;;;;5049839;28;20518;-73
2022/11/25 09:16:39;;;;;;;167.20;62.55;;;1.70;99.90;;;;;;5050049;28;20096;-73
2022/11/25 09:19:05;;;;;;;153.75;62.90;;;1.80;99.90;;;;;;5049101;28;20037;-73
2022/11/25 09:21:31;;;;;;;152.73;59.25;;;1.80;99.90;;;;;;5055676;28;20044;-73
2022/11/25 09:23:57;;;;;;;162.88;63.70;;;1.90;99.90;;;;;;5056865;28;20029;-72
2022/11/25 09:26:29;;;;;;;182.85;68.15;;;2.00;99.90;;;;;;5056793;28;20055;-66
2022/11/25 09:28:55;;;;;;;166.55;63.13;;;1.90;99.90;;;;;;5056474;28;20025;-67
2022/11/25 09:31:21;;;;;;;187.55;70.38;;;2.00;99.90;;;;;;5055044;28;20036;-73
2022/11/25 09:33:47;;;;;;;164.60;65.18;;;2.00;99.90;;;;;;5055776;28;20040;-73
2022/11/25 09:36:14;;;;;;;176.93;64.00;;;2.00;99.90;;;;;;5055401;28;20501;-73
2022/11/25 09:38:43;;;;;;;159.90;61.45;;;2.10;99.90;;;;;;5055849;28;20092;-73
2022/11/25 09:48:02;;;;;;;154.90;56.67;;;2.20;99.90;;;;;;5055629;28;20043;-73
2022/11/25 09:50:56;;;;;;;160.77;61.63;;;2.20;99.90;;;;;;5050343;28;20026;-73
2022/11/25 09:53:45;;;;;;;154.10;58.45;;;2.30;99.90;;;;;;5050698;28;20060;-66
2022/11/25 09:56:28;;;;;;;168.05;62.35;;;2.40;99.90;;;;;;5053340;28;20076;-73
2022/11/25 09:59:13;;;;;;;205.25;69.13;;;2.40;99.90;;;;;;5052732;28;20021;-73
2022/11/25 10:01:49;;;;;;;155.18;66.70;;;2.40;99.90;;;;;;5041202;28;20079;-73
2022/11/25 10:04:45;;;;;;;174.68;68.00;;;2.50;99.90;;;;;;5034707;28;20396;-67
2022/11/25 10:07:20;;;;;;;164.23;59.38;;;2.50;99.90;;;;;;5068558;28;20398;-73
2022/11/25 10:09:45;;;;;;;146.18;56.63;;;2.60;99.90;;;;;;5074688;28;20074;-67
2022/11/25 10:12:24;;;;;;;149.15;60.55;;;2.60;99.90;;;;;;5075879;28;20021;-72
2022/11/25 10:15:25;;;;;;;160.73;58.85;;;2.60;99.90;;;;;;5076221;28;20035;-71
2022/11/25 10:17:56;;;;;;;172.43;64.50;;;2.60;99.90;;;;;;5073894;28;20115;-72
2022/11/25 10:20:36;;;;;;;165.88;64.03;;;2.60;99.90;;;;;;5073985;28;20044;-67
2022/11/25 10:23:13;;;;;;;150.68;60.92;;;2.60;99.90;;;;;;5073774;28;20028;-72
2022/11/25 10:25:44;;;;;;;199.68;73.68;;;2.60;99.90;;;;;;5074255;28;20067;-66
2022/11/25 10:28:22;;;;;;;196.23;75.60;;;2.60;99.90;;;;;;5072836;28;20107;-72
2022/11/25 10:31:16;;;;;;;175.57;62.85;;;2.60;99.90;;;;;;5073134;28;20028;-72
2022/11/25 10:33:45;;;;;;;166.35;63.65;;;2.60;99.90;;;;;;5073014;28;20020;-72
2022/11/25 10:36:33;;;;;;;261.50;107.55;;;2.60;99.90;;;;;;5055727;28;20459;-66
2022/11/25 10:39:19;;;;;;;219.23;87.70;;;2.60;99.90;;;;;;5055641;28;20108;-72
2022/11/25 10:41:51;;;;;;;202.60;78.32;;;2.60;99.90;;;;;;5055421;28;20489;-72
2022/11/25 10:44:26;;;;;;;189.53;72.53;;;2.60;99.90;;;;;;5055160;28;20083;-66
2022/11/25 10:47:31;;;;;;;165.85;66.93;;;2.60;99.90;;;;;;5055366;28;20408;-72
2022/11/25 10:50:14;;;;;;;181.73;69.18;;;2.60;99.90;;;;;;5055374;28;20474;-72
2022/11/25 10:53:03;;;;;;;194.25;76.57;;;2.70;99.90;;;;;;5055204;28;20551;-72
2022/11/25 10:55:32;;;;;;;189.65;70.97;;;2.70;99.90;;;;;;5051552;28;20115;-72
2022/11/25 10:57:58;;;;;;;206.60;84.80;;;2.70;99.90;;;;;;5055233;28;20037;-66
2022/11/25 11:00:37;;;;;;;240.13;95.90;;;2.70;99.90;;;;;;5055188;28;20428;-67
2022/11/25 11:03:24;;;;;;;203.35;77.10;;;2.80;99.90;;;;;;5054958;28;20463;-72
2022/11/25 11:05:52;;;;;;;193.82;71.00;;;2.80;99.90;;;;;;5059476;28;20017;-72
2022/11/25 11:08:22;;;;;;;196.93;75.25;;;2.90;99.90;;;;;;5073728;28;20111;-67
2022/11/25 11:11:21;;;;;;;183.63;71.72;;;2.90;99.90;;;;;;5073717;28;20112;-72
2022/11/25 11:13:49;;;;;;;195.75;73.93;;;2.90;99.90;;;;;;5074937;28;20029;-67
2022/11/25 11:16:36;;;;;;;201.75;73.88;;;2.90;99.90;;;;;;5073539;28;20487;-67
2022/11/25 11:19:03;;;;;;;187.77;73.47;;;2.90;99.90;;;;;;5074671;28;20028;-67
2022/11/25 11:21:31;;;;;;;202.77;85.38;;;2.90;99.90;;;;;;5065686;28;20104;-73
2022/11/25 11:23:58;;;;;;;223.90;90.03;;;2.90;99.90;;;;;;5050407;28;20041;-72
2022/11/25 11:26:31;;;;;;;267.58;95.45;;;2.90;99.90;;;;;;5056781;28;20033;-73
2022/11/25 11:29:14;;;;;;;225.18;81.82;;;2.90;99.90;;;;;;5067404;28;20474;-67
2022/11/25 11:31:46;;;;;;;253.55;100.53;;;2.90;99.90;;;;;;5060148;28;20048;-73
2022/11/25 11:34:35;;;;;;;336.45;133.15;;;2.90;99.90;;;;;;5058617;28;20033;-73
2022/11/25 11:37:25;;;;;;;273.48;104.88;;;2.90;99.90;;;;;;5073264;28;20032;-73
2022/11/25 11:40:15;;;;;;;245.93;91.07;;;2.90;99.90;;;;;;5069153;28;20056;-67
2022/11/25 11:43:04;;;;;;;262.20;92.55;;;2.90;99.90;;;;;;5072758;28;20139;-66
2022/11/25 11:45:55;;;;;;;280.20;105.13;;;2.90;99.90;;;;;;5073069;28;20041;-72
2022/11/25 11:48:45;;;;;;;267.40;97.68;;;2.90;99.90;;;;;;5053146;28;20021;-73
2022/11/25 11:51:16;;;;;;;239.25;89.68;;;2.90;99.90;;;;;;5059921;28;20379;-67
2022/11/25 11:54:01;;;;;;;244.38;90.60;;;2.90;99.90;;;;;;5072605;28;20025;-67
2022/11/25 11:56:45;;;;;;;236.40;88.78;;;3.00;99.90;;;;;;5055982;28;20425;-73
2022/11/25 11:59:39;;;;;;;228.68;88.25;;;3.10;99.90;;;;;;5072097;28;20031;-66
2022/11/25 12:02:16;;;;;;;270.08;89.72;;;3.10;99.90;;;;;;5069108;28;20032;-66
2022/11/25 12:05:08;;;;;;;231.82;89.70;;;3.10;99.90;;;;;;5068124;28;20032;-66
2022/11/25 12:07:46;;;;;;;267.15;106.68;;;3.10;99.90;;;;;;5053882;28;20055;-67
2022/11/25 12:10:24;;;;;;;254.23;90.35;;;3.10;99.90;;;;;;5071802;28;20028;-67
2022/11/25 12:13:15;;;;;;;269.70;90.30;;;3.10;99.90;;;;;;5071968;28;20036;-66
2022/11/25 12:15:55;;;;;;;268.77;88.35;;;3.00;99.90;;;;;;5060265;28;20474;-66
2022/11/25 12:18:45;;;;;;;253.05;88.45;;;3.00;99.90;;;;;;5060005;28;20124;-66
2022/11/25 12:21:27;;;;;;;284.63;91.00;;;3.00;99.90;;;;;;5071693;28;20029;-66
2022/11/25 12:24:13;;;;;;;265.52;88.78;;;2.90;99.90;;;;;;5050679;28;20048;-66
2022/11/25 12:26:48;;;;;;;255.40;89.25;;;2.90;99.90;;;;;;5066714;28;20044;-66
2022/11/25 12:29:40;;;;;;;238.00;84.78;;;2.90;99.90;;;;;;5070197;28;20479;-73
2022/11/25 12:32:21;;;;;;;305.42;98.18;;;2.90;99.90;;;;;;5067796;28;20080;-66
2022/11/25 12:34:57;;;;;;;302.50;92.15;;;3.00;99.90;;;;;;5071806;28;20534;-73
2022/11/25 12:37:33;;;;;;;262.85;88.53;;;2.90;99.90;;;;;;5071857;28;20416;-67
2022/11/25 12:40:11;;;;;;;301.15;95.70;;;2.90;99.90;;;;;;5064589;28;20025;-73
2022/11/25 12:42:39;;;;;;;244.13;89.00;;;2.90;99.90;;;;;;5067235;28;20478;-67
2022/11/25 12:45:24;;;;;;;257.83;90.03;;;2.90;99.90;;;;;;5055673;28;20044;-73
2022/11/25 12:47:51;;;;;;;334.65;101.80;;;2.90;99.90;;;;;;5058708;28;20040;-72
2022/11/25 12:50:31;;;;;;;283.88;100.35;;;2.90;99.90;;;;;;5050580;28;20021;-73
2022/11/25 12:53:03;;;;;;;291.83;104.95;;;2.90;99.90;;;;;;5069557;28;20028;-66
2022/11/25 12:55:30;;;;;;;293.00;105.72;;;2.90;99.90;;;;;;5070580;28;20096;-72